sensor_id;sensor_type;location;lat;lon;timestamp;P1;durP1;ratioP1;P2;durP2;ratioP2
39860;SDS011;25529;49.346;20.886;2023-07-09T00:03:32;22.00;;;8.88;;
39860;SDS011;25529;49.346;20.886;2023-07-09T00:05:58;21.17;;;8.57;;
39860;SDS011;25529;49.346;20.886;2023-07-09T00:16:41;23.25;;;9.38;;
39860;SDS011;25529;49.346;20.886;2023-07-09T00:19:40;21.65;;;9.27;;
39860;SDS011;25529;49.346;20.886;2023-07-09T00:28:17;21.77;;;8.55;;
39860;SDS011;25529;49.346;20.886;2023-07-09T00:30:46;20.98;;;7.65;;
39860;SDS011;25529;49.346;20.886;2023-07-09T00:33:12;19.90;;;8.05;;
39860;SDS011;25529;49.346;20.886;2023-07-09T00:35:41;20.25;;;8.50;;
39860;SDS011;25529;49.346;20.886;2023-07-09T00:38:55;19.35;;;7.70;;
39860;SDS011;25529;49.346;20.886;2023-07-09T00:58:46;19.25;;;7.80;;
39860;SDS011;25529;49.346;20.886;2023-07-09T01:01:14;20.50;;;8.13;;
39860;SDS011;25529;49.346;20.886;2023-07-09T01:06:50;20.42;;;7.88;;
39860;SDS011;25529;49.346;20.886;2023-07-09T01:17:55;22.02;;;8.07;;
39860;SDS011;25529;49.346;20.886;2023-07-09T01:20:21;19.00;;;7.65;;
39860;SDS011;25529;49.346;20.886;2023-07-09T02:03:18;26.27;;;8.30;;
39860;SDS011;25529;49.346;20.886;2023-07-09T02:18:22;17.30;;;6.93;;
39860;SDS011;25529;49.346;20.886;2023-07-09T02:45:59;19.13;;;7.30;;
39860;SDS011;25529;49.346;20.886;2023-07-09T04:01:12;20.20;;;7.10;;
39860;SDS011;25529;49.346;20.886;2023-07-09T04:03:40;19.63;;;7.47;;
39860;SDS011;25529;49.346;20.886;2023-07-09T04:06:24;18.80;;;7.47;;
39860;SDS011;25529;49.346;20.886;2023-07-09T04:08:53;19.27;;;7.68;;
39860;SDS011;25529;49.346;20.886;2023-07-09T04:11:18;18.60;;;7.38;;
39860;SDS011;25529;49.346;20.886;2023-07-09T04:35:15;33.33;;;19.70;;
39860;SDS011;25529;49.346;20.886;2023-07-09T04:37:40;21.50;;;8.90;;
39860;SDS011;25529;49.346;20.886;2023-07-09T04:40:07;18.23;;;7.38;;
39860;SDS011;25529;49.346;20.886;2023-07-09T04:42:35;17.08;;;6.85;;
39860;SDS011;25529;49.346;20.886;2023-07-09T04:45:01;24.08;;;10.20;;
39860;SDS011;25529;49.346;20.886;2023-07-09T04:47:26;19.15;;;7.30;;
39860;SDS011;25529;49.346;20.886;2023-07-09T04:49:52;18.20;;;6.68;;
39860;SDS011;25529;49.346;20.886;2023-07-09T04:52:20;17.88;;;7.10;;
39860;SDS011;25529;49.346;20.886;2023-07-09T05:06:51;17.77;;;6.70;;
39860;SDS011;25529;49.346;20.886;2023-07-09T05:09:19;18.88;;;7.47;;
39860;SDS011;25529;49.346;20.886;2023-07-09T05:11:45;24.25;;;9.65;;
39860;SDS011;25529;49.346;20.886;2023-07-09T05:29:42;24.08;;;9.25;;
39860;SDS011;25529;49.346;20.886;2023-07-09T05:57:03;18.65;;;7.13;;
39860;SDS011;25529;49.346;20.886;2023-07-09T06:09:12;56.30;;;37.15;;
39860;SDS011;25529;49.346;20.886;2023-07-09T06:57:30;54.88;;;33.90;;
39860;SDS011;25529;49.346;20.886;2023-07-09T06:59:58;55.03;;;30.05;;
39860;SDS011;25529;49.346;20.886;2023-07-09T07:02:44;42.75;;;23.08;;
39860;SDS011;25529;49.346;20.886;2023-07-09T07:11:42;30.23;;;16.40;;
39860;SDS011;25529;49.346;20.886;2023-07-09T07:17:17;30.08;;;14.50;;
39860;SDS011;25529;49.346;20.886;2023-07-09T07:28:57;22.00;;;9.95;;
39860;SDS011;25529;49.346;20.886;2023-07-09T07:34:28;20.27;;;8.77;;
39860;SDS011;25529;49.346;20.886;2023-07-09T07:36:55;21.98;;;10.15;;
39860;SDS011;25529;49.346;20.886;2023-07-09T07:39:21;24.33;;;13.10;;
39860;SDS011;25529;49.346;20.886;2023-07-09T07:41:49;23.90;;;10.82;;
39860;SDS011;25529;49.346;20.886;2023-07-09T07:44:20;20.98;;;9.02;;
39860;SDS011;25529;49.346;20.886;2023-07-09T07:46:54;19.08;;;8.00;;
39860;SDS011;25529;49.346;20.886;2023-07-09T07:49:20;17.98;;;7.15;;
39860;SDS011;25529;49.346;20.886;2023-07-09T07:51:54;17.48;;;7.28;;
39860;SDS011;25529;49.346;20.886;2023-07-09T07:54:20;19.08;;;7.60;;
39860;SDS011;25529;49.346;20.886;2023-07-09T07:56:46;18.10;;;7.07;;
39860;SDS011;25529;49.346;20.886;2023-07-09T07:59:11;21.42;;;6.90;;
39860;SDS011;25529;49.346;20.886;2023-07-09T08:01:42;16.95;;;6.47;;
39860;SDS011;25529;49.346;20.886;2023-07-09T08:04:07;16.98;;;6.80;;
39860;SDS011;25529;49.346;20.886;2023-07-09T08:06:35;17.42;;;6.72;;
39860;SDS011;25529;49.346;20.886;2023-07-09T08:09:06;18.35;;;6.70;;
39860;SDS011;25529;49.346;20.886;2023-07-09T08:11:32;16.70;;;6.20;;
39860;SDS011;25529;49.346;20.886;2023-07-09T08:14:00;17.20;;;6.38;;
39860;SDS011;25529;49.346;20.886;2023-07-09T08:16:26;17.83;;;6.43;;
39860;SDS011;25529;49.346;20.886;2023-07-09T08:19:09;22.88;;;10.07;;
39860;SDS011;25529;49.346;20.886;2023-07-09T08:21:58;28.48;;;12.15;;
39860;SDS011;25529;49.346;20.886;2023-07-09T08:24:23;20.60;;;8.10;;
39860;SDS011;25529;49.346;20.886;2023-07-09T08:26:51;17.92;;;7.15;;
39860;SDS011;25529;49.346;20.886;2023-07-09T08:32:18;17.05;;;6.10;;
39860;SDS011;25529;49.346;20.886;2023-07-09T08:34:44;17.33;;;6.40;;
39860;SDS011;25529;49.346;20.886;2023-07-09T08:37:32;17.52;;;6.47;;
39860;SDS011;25529;49.346;20.886;2023-07-09T08:40:21;17.20;;;6.35;;
39860;SDS011;25529;49.346;20.886;2023-07-09T08:42:56;14.38;;;6.28;;
39860;SDS011;25529;49.346;20.886;2023-07-09T08:51:29;15.70;;;6.13;;
39860;SDS011;25529;49.346;20.886;2023-07-09T08:54:01;16.92;;;6.00;;
39860;SDS011;25529;49.346;20.886;2023-07-09T08:56:32;15.65;;;6.00;;
39860;SDS011;25529;49.346;20.886;2023-07-09T08:58:59;16.00;;;5.75;;
39860;SDS011;25529;49.346;20.886;2023-07-09T09:01:52;18.10;;;5.68;;
39860;SDS011;25529;49.346;20.886;2023-07-09T09:04:27;18.42;;;5.57;;
39860;SDS011;25529;49.346;20.886;2023-07-09T09:07:05;16.30;;;6.07;;
39860;SDS011;25529;49.346;20.886;2023-07-09T09:10:02;16.65;;;6.25;;
39860;SDS011;25529;49.346;20.886;2023-07-09T09:15:31;18.35;;;6.05;;
39860;SDS011;25529;49.346;20.886;2023-07-09T09:23:44;17.17;;;6.25;;
39860;SDS011;25529;49.346;20.886;2023-07-09T09:26:30;15.43;;;5.95;;
39860;SDS011;25529;49.346;20.886;2023-07-09T09:32:22;17.73;;;6.18;;
39860;SDS011;25529;49.346;20.886;2023-07-09T09:38:17;17.13;;;5.85;;
39860;SDS011;25529;49.346;20.886;2023-07-09T09:40:46;17.38;;;6.63;;
39860;SDS011;25529;49.346;20.886;2023-07-09T09:46:26;16.10;;;6.13;;
39860;SDS011;25529;49.346;20.886;2023-07-09T09:52:06;16.98;;;5.88;;
39860;SDS011;25529;49.346;20.886;2023-07-09T10:18:37;17.15;;;6.38;;
39860;SDS011;25529;49.346;20.886;2023-07-09T10:23:47;18.27;;;6.32;;
39860;SDS011;25529;49.346;20.886;2023-07-09T10:26:28;18.10;;;6.40;;
39860;SDS011;25529;49.346;20.886;2023-07-09T10:31:58;20.17;;;7.32;;
39860;SDS011;25529;49.346;20.886;2023-07-09T10:40:17;18.48;;;7.47;;
39860;SDS011;25529;49.346;20.886;2023-07-09T10:49:00;18.67;;;7.37;;
39860;SDS011;25529;49.346;20.886;2023-07-09T10:51:37;19.50;;;7.95;;
39860;SDS011;25529;49.346;20.886;2023-07-09T11:00:14;19.90;;;6.78;;
39860;SDS011;25529;49.346;20.886;2023-07-09T11:03:13;17.73;;;6.88;;
39860;SDS011;25529;49.346;20.886;2023-07-09T11:05:40;16.60;;;6.85;;
39860;SDS011;25529;49.346;20.886;2023-07-09T11:08:28;19.33;;;7.40;;
39860;SDS011;25529;49.346;20.886;2023-07-09T11:10:54;20.15;;;7.53;;
39860;SDS011;25529;49.346;20.886;2023-07-09T11:14:08;17.75;;;6.93;;
39860;SDS011;25529;49.346;20.886;2023-07-09T11:19:33;17.27;;;6.77;;
39860;SDS011;25529;49.346;20.886;2023-07-09T14:07:48;16.35;;;6.45;;
39860;SDS011;25529;49.346;20.886;2023-07-09T14:10:14;17.77;;;6.60;;
39860;SDS011;25529;49.346;20.886;2023-07-09T14:12:43;16.10;;;6.10;;
39860;SDS011;25529;49.346;20.886;2023-07-09T14:51:40;16.08;;;6.40;;
39860;SDS011;25529;49.346;20.886;2023-07-09T14:54:34;17.10;;;6.07;;
39860;SDS011;25529;49.346;20.886;2023-07-09T14:57:08;15.43;;;5.90;;
39860;SDS011;25529;49.346;20.886;2023-07-09T14:59:52;18.13;;;6.43;;
39860;SDS011;25529;49.346;20.886;2023-07-09T15:05:29;16.70;;;6.57;;
39860;SDS011;25529;49.346;20.886;2023-07-09T15:08:10;16.73;;;6.30;;
39860;SDS011;25529;49.346;20.886;2023-07-09T19:50:11;19.52;;;8.90;;
39860;SDS011;25529;49.346;20.886;2023-07-09T19:52:42;21.38;;;9.57;;
39860;SDS011;25529;49.346;20.886;2023-07-09T19:55:17;21.38;;;9.30;;
39860;SDS011;25529;49.346;20.886;2023-07-09T19:57:44;20.95;;;9.13;;
39860;SDS011;25529;49.346;20.886;2023-07-09T20:00:13;21.92;;;9.88;;
39860;SDS011;25529;49.346;20.886;2023-07-09T20:02:38;21.08;;;8.98;;
39860;SDS011;25529;49.346;20.886;2023-07-09T20:05:15;23.90;;;10.30;;
39860;SDS011;25529;49.346;20.886;2023-07-09T20:07:44;21.25;;;10.13;;
39860;SDS011;25529;49.346;20.886;2023-07-09T20:10:09;22.30;;;9.82;;
39860;SDS011;25529;49.346;20.886;2023-07-09T20:12:35;21.48;;;10.23;;
39860;SDS011;25529;49.346;20.886;2023-07-09T20:15:18;21.23;;;9.25;;
39860;SDS011;25529;49.346;20.886;2023-07-09T20:17:51;20.67;;;9.70;;
39860;SDS011;25529;49.346;20.886;2023-07-09T20:20:20;22.33;;;10.43;;
39860;SDS011;25529;49.346;20.886;2023-07-09T20:22:46;21.58;;;9.95;;
39860;SDS011;25529;49.346;20.886;2023-07-09T20:25:23;22.58;;;10.65;;
39860;SDS011;25529;49.346;20.886;2023-07-09T20:27:51;22.77;;;10.33;;
39860;SDS011;25529;49.346;20.886;2023-07-09T20:30:17;22.27;;;10.63;;
39860;SDS011;25529;49.346;20.886;2023-07-09T20:32:46;22.67;;;10.65;;
39860;SDS011;25529;49.346;20.886;2023-07-09T20:35:23;23.73;;;11.32;;
39860;SDS011;25529;49.346;20.886;2023-07-09T20:37:51;24.80;;;11.70;;
39860;SDS011;25529;49.346;20.886;2023-07-09T20:40:21;24.00;;;11.40;;
39860;SDS011;25529;49.346;20.886;2023-07-09T20:42:48;23.50;;;11.05;;
39860;SDS011;25529;49.346;20.886;2023-07-09T20:50:31;26.40;;;11.77;;
39860;SDS011;25529;49.346;20.886;2023-07-09T20:52:59;25.40;;;11.73;;
39860;SDS011;25529;49.346;20.886;2023-07-09T20:55:35;24.67;;;10.73;;
39860;SDS011;25529;49.346;20.886;2023-07-09T20:58:07;22.73;;;11.23;;
39860;SDS011;25529;49.346;20.886;2023-07-09T21:00:48;26.05;;;10.57;;
39860;SDS011;25529;49.346;20.886;2023-07-09T21:03:17;23.98;;;11.18;;
39860;SDS011;25529;49.346;20.886;2023-07-09T21:05:45;21.77;;;10.25;;
39860;SDS011;25529;49.346;20.886;2023-07-09T21:23:44;23.45;;;10.95;;
39860;SDS011;25529;49.346;20.886;2023-07-09T22:30:56;27.80;;;13.23;;
